Time;durP1;ratioP1;P1;durP2;ratioP2;P2;SDS_P1;SDS_P2;PMS_P1;PMS_P2;Temp;Humidity;BMP_temperature;BMP_pressure;BME280_temperature;BME280_humidity;BME280_pressure;Samples;Min_cycle;Max_cycle;Signal;HPM_P1;HPM_P2
2022/09/21 00:01:08;;;;;;;8.63;5.70;;;;;;;6.20;100.00;98963.53;5099603;28;20336;-68
2022/09/21 00:03:35;;;;;;;8.53;6.43;;;;;;;6.18;100.00;98962.72;5106255;28;20218;-68
2022/09/21 00:06:03;;;;;;;7.43;6.23;;;;;;;6.20;100.00;98963.53;5104754;28;20333;-68
2022/09/21 00:08:30;;;;;;;6.20;5.60;;;;;;;6.17;100.00;98968.03;5100544;28;20477;-70
2022/09/21 00:10:58;;;;;;;7.90;6.60;;;;;;;6.16;100.00;98972.41;5105931;28;20549;-68
2022/09/21 00:13:27;;;;;;;8.07;6.00;;;;;;;6.14;100.00;98971.63;5102267;28;20235;-68
2022/09/21 00:15:54;;;;;;;7.80;6.50;;;;;;;6.12;100.00;98962.09;5102686;28;20260;-68
2022/09/21 00:18:21;;;;;;;8.63;6.37;;;;;;;6.08;100.00;98969.25;5107704;28;20262;-68
2022/09/21 00:20:48;;;;;;;11.47;6.60;;;;;;;6.07;100.00;98966.66;5099265;28;20255;-68
2022/09/21 00:23:14;;;;;;;8.13;6.60;;;;;;;6.06;100.00;98970.22;5105923;28;20267;-67
2022/09/21 00:25:41;;;;;;;8.57;6.07;;;;;;;6.03;100.00;98968.56;5105605;28;20264;-70
2022/09/21 00:28:09;;;;;;;7.80;5.80;;;;;;;6.05;100.00;98973.75;5100523;28;20268;-69
2022/09/21 00:30:37;;;;;;;8.63;6.67;;;;;;;6.07;100.00;98961.41;5104119;28;20276;-69
2022/09/21 00:33:05;;;;;;;9.43;6.40;;;;;;;6.06;100.00;98970.22;5101894;28;20230;-69
2022/09/21 00:35:32;;;;;;;9.57;6.90;;;;;;;6.03;100.00;98970.31;5102589;28;20644;-69
2022/09/21 00:38:01;;;;;;;8.17;6.20;;;;;;;6.01;100.00;98975.63;5107400;28;20229;-69
2022/09/21 00:40:27;;;;;;;9.93;6.47;;;;;;;6.01;100.00;98962.53;5098626;28;20254;-69
2022/09/21 00:42:54;;;;;;;9.03;6.77;;;;;;;6.00;100.00;98966.06;5105602;28;20268;-68
2022/09/21 00:45:22;;;;;;;9.60;6.67;;;;;;;5.98;100.00;98965.25;5105554;28;20264;-69
2022/09/21 00:47:50;;;;;;;8.90;7.00;;;;;;;5.95;100.00;98968.00;5099842;28;20270;-69
2022/09/21 00:50:19;;;;;;;12.27;7.40;;;;;;;5.93;100.00;98964.56;5105660;28;20242;-69
2022/09/21 00:52:50;;;;;;;8.13;6.13;;;;;;;5.94;100.00;98971.53;5106630;28;20249;-68
2022/09/21 00:55:21;;;;;;;9.40;6.20;;;;;;;5.93;100.00;98964.56;5111032;28;20225;-68
2022/09/21 00:57:52;;;;;;;7.77;6.33;;;;;;;5.88;100.00;98971.78;5096673;28;20234;-69
2022/09/21 01:00:19;;;;;;;9.37;6.80;;;;;;;5.91;100.00;98976.88;5105334;28;20260;-69
2022/09/21 01:02:48;;;;;;;9.67;6.20;;;;;;;5.80;100.00;98978.22;5103050;28;20272;-69
2022/09/21 01:05:14;;;;;;;7.73;6.13;;;;;;;5.74;100.00;98971.38;5100413;28;20262;-68
2022/09/21 01:07:45;;;;;;;9.63;6.20;;;;;;;5.55;100.00;98970.34;5106576;28;20513;-68
2022/09/21 01:10:15;;;;;;;10.33;6.40;;;;;;;5.56;100.00;98971.19;5099297;28;20284;-68
2022/09/21 01:13:00;;;;;;;7.47;5.97;;;;;;;5.52;100.00;98973.06;5103738;28;20230;-68
2022/09/21 01:15:36;;;;;;;9.43;6.30;;;;;;;5.53;100.00;98969.53;5106947;28;20571;-68
2022/09/21 01:18:12;;;;;;;8.53;5.70;;;;;;;5.48;100.00;98973.22;5099228;28;20265;-69
2022/09/21 01:21:06;;;;;;;9.30;6.60;;;;;;;5.44;100.00;98969.00;5102977;28;20267;-68
2022/09/21 01:24:07;;;;;;;9.10;6.43;;;;;;;5.44;100.00;98969.00;5111272;28;20257;-68
2022/09/21 01:26:52;;;;;;;8.23;6.13;;;;;;;5.47;100.00;98975.00;5104618;28;20260;-68
2022/09/21 01:29:25;;;;;;;8.10;6.63;;;;;;;5.46;100.00;98969.81;5112846;28;20227;-68
2022/09/21 01:31:58;;;;;;;8.97;6.13;;;;;;;5.44;100.00;98975.09;5105040;28;20680;-69
2022/09/21 01:34:31;;;;;;;9.27;6.27;;;;;;;5.42;100.00;98969.06;5104438;28;20598;-68
2022/09/21 01:37:05;;;;;;;8.30;6.43;;;;;;;5.45;100.00;98976.81;5099684;28;20279;-68
2022/09/21 01:39:35;;;;;;;10.07;7.00;;;;;;;5.44;100.00;98979.50;5108520;28;20262;-68
2022/09/21 01:42:04;;;;;;;7.87;6.10;;;;;;;5.45;100.00;98983.81;5106136;28;20292;-68
2022/09/21 01:44:35;;;;;;;9.37;6.70;;;;;;;5.44;100.00;98975.09;5104510;28;20255;-68
2022/09/21 01:47:03;;;;;;;9.67;6.13;;;;;;;5.40;100.00;98980.50;5116720;28;20600;-68
2022/09/21 01:49:35;;;;;;;7.23;5.87;;;;;;;5.38;100.00;98977.94;5107109;28;20226;-68
2022/09/21 01:52:08;;;;;;;6.23;5.53;;;;;;;5.38;100.00;98979.72;5105508;28;20250;-68
2022/09/21 01:54:42;;;;;;;7.20;5.40;;;;;;;5.35;100.00;98970.19;5116429;28;20229;-68
2022/09/21 01:57:15;;;;;;;7.90;6.67;;;;;;;5.35;100.00;98979.81;5101931;28;20283;-68
2022/09/21 01:59:49;;;;;;;7.90;6.37;;;;;;;5.30;100.00;98969.50;5108638;28;20661;-68
2022/09/21 02:02:20;;;;;;;8.93;6.07;;;;;;;5.33;100.00;98972.03;5110230;28;20260;-67
2022/09/21 02:04:47;;;;;;;7.77;5.93;;;;;;;5.29;100.00;98978.28;5109923;28;20343;-68
2022/09/21 02:07:16;;;;;;;9.17;6.00;;;;;;;5.26;100.00;98975.75;5112949;28;20289;-68
2022/09/21 02:09:44;;;;;;;7.63;6.33;;;;;;;5.23;100.00;98975.88;5106759;28;20222;-68
2022/09/21 02:12:10;;;;;;;8.93;6.27;;;;;;;5.24;100.00;98974.94;5103653;28;20227;-68
2022/09/21 02:14:38;;;;;;;9.23;7.60;;;;;;;5.19;100.00;98973.41;5109078;28;20629;-68
2022/09/21 02:17:23;;;;;;;10.00;6.83;;;;;;;5.22;100.00;98973.28;5100827;28;20258;-69
2022/09/21 02:19:56;;;;;;;8.53;6.60;;;;;;;5.22;100.00;98968.03;5104490;28;20234;-68
2022/09/21 02:22:33;;;;;;;9.97;6.90;;;;;;;5.23;100.00;98968.00;5115916;28;20267;-68
2022/09/21 02:25:07;;;;;;;8.17;5.73;;;;;;;5.24;100.00;98961.84;5108178;28;20272;-69
2022/09/21 02:27:41;;;;;;;9.70;7.07;;;;;;;5.15;100.00;98959.56;5107814;28;20225;-68
2022/09/21 02:30:14;;;;;;;10.37;6.97;;;;;;;5.17;100.00;98960.34;5101757;28;20729;-68
2022/09/21 02:32:49;;;;;;;7.83;6.37;;;;;;;5.21;100.00;98959.34;5107043;28;20264;-68
2022/09/21 02:35:25;;;;;;;8.00;6.27;;;;;;;5.23;100.00;98954.91;5106764;28;20230;-68
2022/09/21 02:38:01;;;;;;;10.27;6.77;;;;;;;5.25;100.00;98962.72;5108862;28;20226;-68
2022/09/21 02:40:31;;;;;;;9.67;6.37;;;;;;;5.38;100.00;98962.19;5110980;28;20222;-69
2022/09/21 02:43:03;;;;;;;7.43;6.13;;;;;;;5.45;100.00;98958.44;5105453;28;20332;-68
2022/09/21 02:45:35;;;;;;;9.33;6.43;;;;;;;5.38;100.00;98956.13;5106963;28;20258;-68
2022/09/21 02:48:08;;;;;;;8.77;6.80;;;;;;;5.32;100.00;98964.19;5107748;28;20265;-68
2022/09/21 02:50:40;;;;;;;8.07;6.30;;;;;;;5.28;100.00;98968.69;5109055;28;20289;-69
2022/09/21 02:53:08;;;;;;;8.40;5.80;;;;;;;5.23;100.00;98964.50;5109547;28;20230;-68
2022/09/21 02:55:35;;;;;;;7.73;6.30;;;;;;;5.05;100.00;98971.25;5107496;28;20253;-69
2022/09/21 02:58:06;;;;;;;7.90;6.00;;;;;;;4.98;100.00;98969.75;5107540;28;20287;-69
2022/09/21 03:00:34;;;;;;;8.63;6.17;;;;;;;4.95;100.00;98969.84;5110109;28;20265;-68
2022/09/21 03:03:01;;;;;;;10.30;6.70;;;;;;;4.95;100.00;98964.59;5111200;28;20258;-68
2022/09/21 03:05:29;;;;;;;9.27;6.40;;;;;;;4.90;100.00;98960.44;5108800;28;20283;-68
2022/09/21 03:07:56;;;;;;;9.50;6.87;;;;;;;4.92;100.00;98964.72;5105378;28;20634;-68
2022/09/21 03:10:23;;;;;;;8.60;6.53;;;;;;;4.93;100.00;98955.94;5109899;28;20284;-68
2022/09/21 03:12:49;;;;;;;8.53;6.40;;;;;;;4.90;100.00;98961.28;5111120;28;20218;-68
2022/09/21 03:15:17;;;;;;;8.57;6.77;;;;;;;4.90;100.00;98963.88;5108974;28;20260;-67
2022/09/21 03:17:43;;;;;;;8.80;6.30;;;;;;;4.91;100.00;98963.00;5107122;28;20223;-68
2022/09/21 03:20:10;;;;;;;9.57;6.30;;;;;;;4.82;100.00;98968.53;5115048;28;20233;-68
2022/09/21 03:22:38;;;;;;;7.63;5.87;;;;;;;4.72;100.00;98971.50;5106309;28;20254;-68
2022/09/21 03:25:06;;;;;;;7.53;5.67;;;;;;;4.66;100.00;98972.59;5108098;28;20260;-68
2022/09/21 03:27:33;;;;;;;8.17;5.97;;;;;;;4.55;100.00;98974.69;5109966;28;20231;-69
2022/09/21 03:29:59;;;;;;;8.10;6.20;;;;;;;4.49;100.00;98974.88;5107543;28;20315;-68
2022/09/21 03:32:26;;;;;;;7.20;6.07;;;;;;;4.46;100.00;98977.59;5106056;28;20281;-68
2022/09/21 03:34:53;;;;;;;9.30;6.37;;;;;;;4.44;100.00;98984.63;5106007;28;20230;-68
2022/09/21 03:37:19;;;;;;;6.67;5.43;;;;;;;4.40;100.00;98985.63;5109851;28;20259;-68
2022/09/21 03:39:47;;;;;;;7.43;5.87;;;;;;;4.36;100.00;98984.03;5107809;28;20271;-69
2022/09/21 03:42:14;;;;;;;9.57;6.03;;;;;;;4.39;100.00;98990.94;5105915;28;20348;-69
2022/09/21 03:44:41;;;;;;;7.27;5.90;;;;;;;4.39;100.00;98983.91;5107284;28;20264;-68
2022/09/21 03:47:07;;;;;;;8.97;6.47;;;;;;;4.39;100.00;98985.69;5109695;28;20247;-68
2022/09/21 03:49:34;;;;;;;8.43;6.33;;;;;;;4.38;100.00;98987.44;5107980;28;20260;-68
2022/09/21 03:52:01;;;;;;;7.63;5.70;;;;;;;4.35;100.00;98981.44;5107403;28;20246;-68
2022/09/21 03:54:28;;;;;;;5.83;5.10;;;;;;;4.28;100.00;98986.00;5101481;28;20286;-68
2022/09/21 03:56:56;;;;;;;7.73;5.67;;;;;;;4.27;100.00;98993.94;5112987;28;20262;-68
2022/09/21 03:59:22;;;;;;;9.20;5.80;;;;;;;4.26;100.00;98987.81;5106507;28;20260;-67
2022/09/21 04:01:49;;;;;;;9.37;6.10;;;;;;;4.31;100.00;98988.53;5111672;28;20641;-68
2022/09/21 04:04:16;;;;;;;7.50;5.40;;;;;;;4.34;100.00;98995.44;5106257;28;20263;-69
2022/09/21 04:06:45;;;;;;;8.80;6.00;;;;;;;4.31;100.00;98991.16;5106395;28;20248;-67
2022/09/21 04:09:11;;;;;;;7.03;5.50;;;;;;;4.31;100.00;98990.28;5107603;28;20261;-68
2022/09/21 04:11:38;;;;;;;8.50;6.00;;;;;;;4.32;100.00;98987.63;5109969;28;20281;-68
2022/09/21 04:14:06;;;;;;;6.90;5.37;;;;;;;4.34;100.00;98993.66;5109512;28;20260;-67
2022/09/21 04:16:33;;;;;;;8.47;6.00;;;;;;;4.33;100.00;98988.50;5106113;28;20222;-68
2022/09/21 04:19:00;;;;;;;6.70;5.87;;;;;;;4.33;100.00;98988.50;5107069;28;20256;-68
2022/09/21 04:21:26;;;;;;;7.90;6.03;;;;;;;4.31;100.00;98985.94;5109856;28;20630;-68
2022/09/21 04:23:53;;;;;;;11.00;6.27;;;;;;;4.31;100.00;98991.16;5109510;28;20262;-67
2022/09/21 04:26:24;;;;;;;9.17;6.13;;;;;;;4.30;100.00;98992.06;5104379;28;20259;-67
2022/09/21 04:28:52;;;;;;;7.23;5.40;;;;;;;4.33;100.00;98993.72;5106999;28;20262;-67
2022/09/21 04:31:20;;;;;;;7.77;6.47;;;;;;;4.30;100.00;98999.91;5109602;28;20613;-67
2022/09/21 04:33:50;;;;;;;7.97;5.87;;;;;;;4.30;100.00;98997.28;5109636;28;20264;-67
2022/09/21 04:36:17;;;;;;;7.33;6.07;;;;;;;4.25;100.00;99001.81;5108868;28;20262;-67
2022/09/21 04:38:45;;;;;;;7.70;5.80;;;;;;;4.27;100.00;99002.59;5107109;28;20260;-67
2022/09/21 04:41:12;;;;;;;8.20;5.50;;;;;;;4.24;100.00;99001.84;5104871;28;20260;-67
2022/09/21 04:43:41;;;;;;;7.07;5.43;;;;;;;4.19;100.00;99004.63;5105923;28;20359;-67
2022/09/21 04:46:09;;;;;;;9.40;5.67;;;;;;;4.20;100.00;99008.94;5108713;28;20263;-67
2022/09/21 04:48:37;;;;;;;8.70;5.53;;;;;;;4.21;100.00;99001.97;5106843;28;20255;-67
2022/09/21 04:51:05;;;;;;;8.50;6.70;;;;;;;4.13;100.00;99001.31;5104869;28;20344;-67
2022/09/21 04:53:32;;;;;;;9.10;6.27;;;;;;;4.19;100.00;99007.22;5100474;28;20252;-67
2022/09/21 04:55:58;;;;;;;6.77;5.50;;;;;;;4.26;100.00;99008.75;5111708;28;20583;-67
2022/09/21 04:58:25;;;;;;;7.90;5.77;;;;;;;4.24;100.00;99009.69;5107155;28;20265;-66
2022/09/21 05:00:53;;;;;;;8.73;5.67;;;;;;;4.24;100.00;99020.16;5109381;28;20274;-67
2022/09/21 05:03:20;;;;;;;8.73;6.00;;;;;;;4.22;100.00;99014.97;5108004;28;20264;-67
2022/09/21 05:05:49;;;;;;;7.23;5.40;;;;;;;4.14;100.00;99008.25;5105295;28;20296;-68
2022/09/21 05:08:17;;;;;;;7.63;5.30;;;;;;;4.15;100.00;99020.47;5107235;28;20224;-67
2022/09/21 05:10:43;;;;;;;7.33;5.73;;;;;;;4.20;100.00;99029.88;5109198;28;20264;-67
2022/09/21 05:13:10;;;;;;;7.17;5.37;;;;;;;4.21;100.00;99031.56;5111248;28;20624;-68
2022/09/21 05:15:38;;;;;;;7.67;6.37;;;;;;;4.27;100.00;99031.41;5109805;28;20260;-68
2022/09/21 05:18:05;;;;;;;7.37;6.13;;;;;;;4.30;100.00;99023.47;5109363;28;20228;-67
2022/09/21 05:20:31;;;;;;;9.23;7.07;;;;;;;4.33;100.00;99022.53;5113397;28;20263;-68
2022/09/21 05:23:01;;;;;;;10.60;7.13;;;;;;;4.40;100.00;99019.66;5112375;28;20590;-68
2022/09/21 05:25:28;;;;;;;8.57;7.03;;;;;;;4.43;100.00;99022.19;5109391;28;20224;-68
2022/09/21 05:27:55;;;;;;;9.57;6.80;;;;;;;4.48;100.00;99025.53;5111062;28;20231;-67
2022/09/21 05:30:22;;;;;;;10.93;6.63;;;;;;;4.48;100.00;99024.66;5113112;28;20310;-67
2022/09/21 05:32:58;;;;;;;9.00;6.57;;;;;;;4.49;100.00;99022.00;5111640;28;20721;-67
2022/09/21 05:35:35;;;;;;;8.90;6.83;;;;;;;4.56;100.00;99028.75;5109264;28;20266;-67
2022/09/21 05:38:10;;;;;;;8.57;6.17;;;;;;;4.61;100.00;99031.22;5108425;28;20263;-67
2022/09/21 05:40:37;;;;;;;7.93;6.13;;;;;;;4.63;100.00;99030.28;5109010;28;20259;-66
2022/09/21 05:43:04;;;;;;;9.30;6.77;;;;;;;4.65;100.00;99022.38;5112186;28;20270;-67
2022/09/21 05:45:32;;;;;;;10.93;6.00;;;;;;;4.68;100.00;99028.38;5109502;28;20260;-67
2022/09/21 05:48:11;;;;;;;8.50;6.13;;;;;;;4.69;100.00;99029.19;5108305;28;20268;-67
2022/09/21 05:50:56;;;;;;;8.33;5.97;;;;;;;4.64;100.00;99037.22;5109211;28;20557;-67
2022/09/21 05:53:40;;;;;;;7.83;5.63;;;;;;;4.65;100.00;99041.53;5106060;28;20252;-67
2022/09/21 05:56:14;;;;;;;8.53;6.10;;;;;;;4.72;100.00;99040.47;5114203;28;20263;-67
2022/09/21 05:58:46;;;;;;;9.10;6.17;;;;;;;4.80;100.00;99043.69;5107729;28;20290;-67
2022/09/21 06:01:27;;;;;;;9.20;6.57;;;;;;;4.87;100.00;99044.34;5108078;28;20287;-67
2022/09/21 06:03:55;;;;;;;8.70;6.80;;;;;;;4.95;100.00;99039.72;5111229;28;20263;-67
2022/09/21 06:06:22;;;;;;;9.27;6.70;;;;;;;5.00;100.00;99036.03;5108949;28;20280;-68
2022/09/21 06:08:50;;;;;;;9.13;6.87;;;;;;;5.07;100.00;99041.94;5107301;28;20233;-67
2022/09/21 06:11:17;;;;;;;10.67;6.17;;;;;;;5.07;100.00;99039.31;5108041;28;20225;-68
2022/09/21 06:13:43;;;;;;;11.03;6.90;;;;;;;5.13;100.00;99047.81;5111060;28;20220;-67
2022/09/21 06:16:10;;;;;;;11.17;7.13;;;;;;;5.19;100.00;99047.63;5109083;28;20284;-68
2022/09/21 06:18:39;;;;;;;11.90;6.50;;;;;;;5.29;100.00;99049.03;5107231;28;20271;-67
2022/09/21 06:21:06;;;;;;;11.13;6.60;;;;;;;5.37;100.00;99059.28;5109434;28;20225;-67
2022/09/21 06:23:33;;;;;;;9.53;7.10;;;;;;;5.51;100.00;99057.84;5110138;28;20287;-67
2022/09/21 06:26:01;;;;;;;9.27;6.27;;;;;;;5.60;100.00;99049.69;5109153;28;20305;-67
2022/09/21 06:28:28;;;;;;;10.27;7.13;;;;;;;5.77;100.00;99057.84;5106988;28;20257;-66
2022/09/21 06:30:56;;;;;;;8.20;6.40;;;;;;;5.88;100.00;99057.47;5107060;28;20297;-67
2022/09/21 06:33:23;;;;;;;11.13;7.63;;;;;;;6.01;100.00;99062.22;5108167;28;20595;-67
2022/09/21 06:35:56;;;;;;;8.17;6.40;;;;;;;6.10;100.00;99061.03;5107154;28;20670;-67
2022/09/21 06:38:24;;;;;;;10.33;6.90;;;;;;;6.16;100.00;99061.66;5106679;28;20297;-68
2022/09/21 06:40:51;;;;;;;8.13;6.73;;;;;;;6.20;100.00;99057.16;5109782;28;20257;-68
2022/09/21 06:43:20;;;;;;;10.80;6.97;;;;;;;6.30;100.00;99058.53;5110597;28;20583;-68
2022/09/21 06:45:53;;;;;;;10.47;7.63;;;;;;;6.37;100.00;99062.63;5107280;28;20795;-67
2022/09/21 06:48:20;;;;;;;10.60;8.23;;;;;;;6.48;100.00;99063.91;5106582;28;20230;-68
2022/09/21 06:50:47;;;;;;;11.40;8.33;;;;;;;6.60;100.00;99063.44;5105772;28;20530;-67
2022/09/21 06:53:14;;;;;;;11.30;8.10;;;;;;;6.69;100.00;99062.25;5100560;28;20262;-67
2022/09/21 06:55:40;;;;;;;10.47;7.50;;;;;;;6.73;100.00;99061.22;5113471;28;20250;-68
2022/09/21 06:58:07;;;;;;;9.67;7.00;;;;;;;6.83;100.00;99063.41;5105910;28;20261;-67
2022/09/21 07:00:35;;;;;;;12.13;8.57;;;;;;;6.89;100.00;99064.97;5109404;28;20572;-67
2022/09/21 07:03:02;;;;;;;12.33;8.73;;;;;;;6.96;100.00;99055.91;5108007;28;20567;-67
2022/09/21 07:05:28;;;;;;;10.40;7.93;;;;;;;7.03;100.00;99060.84;5113406;28;20325;-67
2022/09/21 07:07:57;;;;;;;11.63;8.17;;;;;;;7.15;100.00;99062.13;5106002;28;20258;-69
2022/09/21 07:10:24;;;;;;;13.17;8.93;;;;;;;7.22;100.00;99060.03;5109678;28;20304;-69
2022/09/21 07:12:51;;;;;;;11.60;9.07;;;;;;;7.32;100.00;99061.38;5109912;28;20561;-69
2022/09/21 07:15:20;;;;;;;10.47;8.83;;;;;;;7.40;100.00;99054.00;5106900;28;20652;-69
2022/09/21 07:17:48;;;;;;;9.70;7.90;;;;;;;7.48;100.00;99062.44;5106099;28;20258;-68
2022/09/21 07:20:15;;;;;;;11.60;8.70;;;;;;;7.54;100.00;99063.97;5109643;28;20227;-69
2022/09/21 07:22:42;;;;;;;10.83;8.30;;;;;;;7.65;100.00;99059.09;5109738;28;20271;-68
2022/09/21 07:25:09;;;;;;;11.93;8.40;;;;;;;7.70;100.00;99054.47;5106535;28;20305;-68
2022/09/21 07:27:36;;;;;;;10.13;8.10;;;;;;;7.76;100.00;99051.56;5105846;28;20258;-70
2022/09/21 07:30:03;;;;;;;11.20;8.77;;;;;;;7.87;100.00;99058.09;5107486;28;20258;-68
2022/09/21 07:32:30;;;;;;;12.77;9.17;;;;;;;7.92;100.00;99058.75;5109552;28;20709;-69
2022/09/21 07:34:58;;;;;;;11.77;8.43;;;;;;;8.03;100.00;99061.75;5105972;28;20234;-68
2022/09/21 07:37:26;;;;;;;9.87;8.83;;;;;;;8.11;100.00;99064.91;5105194;28;20548;-68
2022/09/21 07:39:53;;;;;;;12.10;9.00;;;;;;;8.21;100.00;99068.88;5108829;28;20266;-68
2022/09/21 07:42:21;;;;;;;14.33;9.27;;;;;;;8.30;100.00;99072.88;5109284;28;20267;-68
2022/09/21 07:44:48;;;;;;;11.57;8.40;;;;;;;8.38;100.00;99073.41;5106307;28;20231;-68
2022/09/21 07:47:15;;;;;;;10.93;8.20;;;;;;;8.44;100.00;99062.59;5105379;28;20255;-68
2022/09/21 07:49:42;;;;;;;13.07;8.47;;;;;;;8.54;100.00;99069.09;5108545;28;20264;-69
2022/09/21 07:52:10;;;;;;;11.00;8.07;;;;;;;8.67;100.00;99070.25;5106365;28;20718;-68
2022/09/21 07:54:37;;;;;;;11.50;9.17;;;;;;;8.79;100.00;99064.41;5106396;28;20231;-68
2022/09/21 07:59:49;;;;;;;10.13;7.30;;;;;;;9.03;100.00;99064.09;5104360;28;20280;-68
2022/09/21 08:02:15;;;;;;;12.67;7.70;;;;;;;9.19;100.00;99066.84;5105158;28;20225;-68
2022/09/21 08:04:42;;;;;;;10.60;7.00;;;;;;;9.28;100.00;99069.00;5108055;28;20255;-68
2022/09/21 08:07:11;;;;;;;11.77;7.10;;;;;;;9.43;100.00;99071.75;5106831;28;20253;-69
2022/09/21 08:09:38;;;;;;;11.13;6.90;;;;;;;9.53;100.00;99072.16;5104206;28;20292;-68
2022/09/21 08:12:04;;;;;;;7.77;6.53;;;;;;;9.61;100.00;99070.00;5104843;28;20477;-69
2022/09/21 08:14:31;;;;;;;8.27;6.80;;;;;;;9.73;100.00;99072.00;5107892;28;20272;-68
2022/09/21 08:16:58;;;;;;;10.43;6.70;;;;;;;9.82;100.00;99076.81;5106909;28;20244;-68
2022/09/21 08:19:25;;;;;;;7.37;6.47;;;;;;;9.95;100.00;99078.75;5108865;28;20656;-68
2022/09/21 08:21:52;;;;;;;7.03;5.63;;;;;;;10.07;100.00;99072.00;5106359;28;20659;-68
2022/09/21 08:24:20;;;;;;;7.73;6.10;;;;;;;10.11;100.00;99077.06;5104610;28;20269;-68
2022/09/21 08:26:47;;;;;;;6.80;5.20;;;;;;;10.30;100.00;99076.94;5105432;28;20272;-69
2022/09/21 08:29:13;;;;;;;8.33;5.03;;;;;;;10.39;100.00;99073.81;5108394;28;20226;-69
2022/09/21 08:31:40;;;;;;;7.53;5.50;;;;;;;10.50;100.00;99079.34;5108225;28;20341;-69
2022/09/21 08:34:07;;;;;;;7.73;5.10;;;;;;;10.54;100.00;99083.53;5104545;28;20277;-69
2022/09/21 08:36:33;;;;;;;5.90;4.70;;;;;;;10.53;100.00;99076.56;5104786;28;20292;-69
2022/09/21 08:39:00;;;;;;;9.43;4.90;;;;;;;10.63;100.00;99072.47;5108291;28;20265;-69
2022/09/21 08:41:52;;;;;;;6.57;5.23;;;;;;;10.72;100.00;99078.13;5108309;28;20416;-69
2022/09/21 08:44:23;;;;;;;5.27;4.27;;;;;;;10.81;100.00;99077.59;5104515;28;20240;-69
2022/09/21 08:47:04;;;;;;;5.97;4.67;;;;;;;10.90;100.00;99073.59;5103362;28;20257;-69
2022/09/21 08:49:33;;;;;;;5.43;4.67;;;;;;;11.05;100.00;99068.31;5103987;28;20258;-69
2022/09/21 08:52:02;;;;;;;5.60;4.57;;;;;;;11.19;100.00;99078.13;5105874;28;20263;-69
2022/09/21 08:54:38;;;;;;;7.30;4.83;;;;;;;11.33;100.00;99075.53;5105546;28;20261;-69
2022/09/21 08:57:11;;;;;;;6.73;4.00;;;;;;;11.37;100.00;99066.47;5108245;28;20262;-69
2022/09/21 08:59:43;;;;;;;5.07;3.47;;;;;;;11.45;100.00;99064.25;5103526;28;20260;-69
2022/09/21 09:02:26;;;;;;;4.53;3.60;;;;;;;11.45;100.00;99058.94;5103593;28;20307;-69
2022/09/21 09:05:01;;;;;;;6.97;4.47;;;;;;;11.58;100.00;99059.94;5107692;28;20260;-69
2022/09/21 09:07:52;;;;;;;6.90;4.00;;;;;;;11.73;100.00;99051.97;5104239;28;20286;-69
2022/09/21 09:10:36;;;;;;;4.20;3.80;;;;;;;11.78;100.00;99051.69;5107010;28;20688;-69
2022/09/21 09:13:20;;;;;;;4.77;4.00;;;;;;;12.00;100.00;99060.06;5106504;28;20311;-69
2022/09/21 09:15:57;;;;;;;6.40;3.80;;;;;;;12.14;100.00;99060.06;5103033;28;20253;-69
2022/09/21 09:18:32;;;;;;;5.07;4.17;;;;;;;12.30;100.00;99052.91;5103296;28;20259;-69
2022/09/21 09:21:05;;;;;;;5.73;3.80;;;;;;;12.41;100.00;99053.09;5104693;28;20257;-69
2022/09/21 09:23:34;;;;;;;5.97;4.00;;;;;;;12.44;100.00;99050.25;5107138;28;20247;-69
2022/09/21 09:26:07;;;;;;;4.60;3.60;;;;;;;12.53;100.00;99049.69;5104122;28;20261;-69
2022/09/21 09:28:42;;;;;;;5.07;3.47;;;;;;;12.66;100.00;99047.97;5103249;28;20268;-69
2022/09/21 09:31:16;;;;;;;4.33;3.80;;;;;;;12.75;100.00;99044.72;5104186;28;20261;-69
2022/09/21 09:33:51;;;;;;;4.33;3.37;;;;;;;12.85;98.43;99043.19;5108405;28;20247;-69
2022/09/21 09:36:19;;;;;;;3.57;3.00;;;;;;;12.90;95.36;99051.72;5107881;28;20503;-69
2022/09/21 09:38:50;;;;;;;3.97;2.90;;;;;;;13.06;92.09;99041.81;5105810;28;20613;-69
2022/09/21 09:41:39;;;;;;;4.10;3.50;;;;;;;13.20;90.46;99044.47;5102307;28;20262;-69
2022/09/21 09:44:26;;;;;;;4.23;2.83;;;;;;;13.21;88.80;99041.69;5100843;28;20258;-71
2022/09/21 09:47:04;;;;;;;3.13;2.67;;;;;;;13.38;87.72;99053.88;5105671;28;20259;-69
2022/09/21 09:49:40;;;;;;;3.67;2.67;;;;;;;13.47;89.88;99043.50;5107152;28;20269;-68
2022/09/21 09:52:10;;;;;;;3.67;3.00;;;;;;;13.53;89.25;99037.78;5107325;28;20261;-68
2022/09/21 09:54:37;;;;;;;3.83;3.03;;;;;;;13.67;90.35;99037.69;5107987;28;20338;-69
2022/09/21 09:57:04;;;;;;;3.73;3.30;;;;;;;13.74;84.46;99035.47;5108945;28;20254;-68
2022/09/21 09:59:38;;;;;;;3.37;3.07;;;;;;;13.81;83.76;99028.78;5106991;28;20267;-68
2022/09/21 10:02:08;;;;;;;3.93;3.10;;;;;;;13.87;83.54;99031.03;5107337;28;20262;-69
2022/09/21 10:04:34;;;;;;;4.30;3.30;;;;;;;13.97;83.16;99029.44;5107502;28;20259;-69
2022/09/21 10:07:01;;;;;;;3.13;2.47;;;;;;;13.91;79.61;99027.19;5105539;28;20297;-69
2022/09/21 10:09:30;;;;;;;3.17;2.67;;;;;;;13.90;79.75;99022.84;5111301;28;20265;-69
2022/09/21 10:12:00;;;;;;;4.93;2.80;;;;;;;14.08;79.11;99024.22;5110930;28;20317;-69
2022/09/21 10:14:31;;;;;;;2.40;2.20;;;;;;;14.31;79.11;99015.53;5107017;28;20331;-69
2022/09/21 10:17:05;;;;;;;2.83;2.50;;;;;;;14.59;77.67;99015.28;5108048;28;20619;-69
2022/09/21 10:19:32;;;;;;;2.20;2.00;;;;;;;14.81;79.91;99015.44;5110815;28;20261;-68
2022/09/21 10:22:00;;;;;;;2.73;2.20;;;;;;;14.95;78.75;99012.63;5109185;28;20273;-69
2022/09/21 10:24:32;;;;;;;3.10;2.70;;;;;;;15.04;73.35;99006.66;5106966;28;20263;-68
2022/09/21 10:27:05;;;;;;;4.47;2.23;;;;;;;14.85;74.03;99007.13;5109531;28;20575;-68
2022/09/21 10:29:39;;;;;;;2.93;1.73;;;;;;;14.89;73.92;99015.72;5110770;28;20269;-69
2022/09/21 10:32:20;;;;;;;4.13;1.80;;;;;;;15.09;73.54;98999.16;5106796;28;20228;-69
2022/09/21 10:35:15;;;;;;;2.13;1.90;;;;;;;15.23;73.43;98999.00;5108075;28;20552;-69
2022/09/21 10:37:43;;;;;;;5.03;2.43;;;;;;;15.30;73.48;98997.56;5108879;28;20251;-68
2022/09/21 10:40:24;;;;;;;4.30;2.07;;;;;;;15.38;73.61;98990.75;5106551;28;20259;-68
2022/09/21 10:42:53;;;;;;;3.13;1.90;;;;;;;15.52;74.34;98992.38;5110272;28;20221;-68
2022/09/21 10:45:22;;;;;;;2.67;1.87;;;;;;;15.79;69.53;98995.59;5110228;28;20228;-69
2022/09/21 10:47:52;;;;;;;2.40;1.70;;;;;;;15.65;71.69;98993.13;5106540;28;20387;-69
2022/09/21 10:50:25;;;;;;;2.57;1.57;;;;;;;15.62;69.51;98988.03;5108094;28;20262;-69
2022/09/21 10:52:58;;;;;;;2.30;1.70;;;;;;;15.71;65.77;98985.50;5107623;28;20704;-70
2022/09/21 10:55:28;;;;;;;3.47;1.40;;;;;;;15.89;73.12;98985.94;5106403;28;20259;-70
2022/09/21 10:57:55;;;;;;;3.17;1.93;;;;;;;15.98;69.38;98990.53;5106405;28;20279;-69
2022/09/21 11:00:35;;;;;;;1.80;1.00;;;;;;;16.03;66.88;98986.56;5106791;28;20283;-71
2022/09/21 11:03:27;;;;;;;1.77;1.10;;;;;;;15.91;68.85;98984.00;5109772;28;20225;-70
2022/09/21 11:05:54;;;;;;;2.10;1.10;;;;;;;15.91;69.01;98976.84;5106034;28;20558;-70
2022/09/21 11:08:27;;;;;;;1.50;1.10;;;;;;;16.12;70.25;98977.00;5114097;28;20268;-69
2022/09/21 11:11:04;;;;;;;2.33;1.23;;;;;;;16.36;69.53;98976.78;5105391;28;20275;-70
2022/09/21 11:13:36;;;;;;;1.53;0.90;;;;;;;16.63;67.23;98973.75;5105907;28;20649;-70
2022/09/21 11:16:14;;;;;;;1.47;1.00;;;;;;;16.70;65.99;98970.44;5105980;28;20258;-70
2022/09/21 11:18:47;;;;;;;1.70;1.10;;;;;;;16.84;64.24;98977.34;5105402;28;20258;-70
2022/09/21 11:21:19;;;;;;;0.80;0.73;;;;;;;17.00;66.26;98975.97;5108972;28;20599;-70
2022/09/21 11:23:57;;;;;;;1.10;0.90;;;;;;;17.10;60.45;98968.91;5108482;28;20253;-70
2022/09/21 11:26:27;;;;;;;2.30;1.13;;;;;;;17.17;59.43;98967.44;5103584;28;20258;-70
2022/09/21 11:29:00;;;;;;;1.47;0.90;;;;;;;17.22;57.40;98967.91;5107233;28;20302;-70
2022/09/21 11:31:48;;;;;;;1.93;1.00;;;;;;;17.55;63.60;98967.78;5108800;28;20291;-70
2022/09/21 11:34:37;;;;;;;1.33;0.90;;;;;;;17.68;57.27;98955.06;5104914;28;20311;-70
2022/09/21 11:37:13;;;;;;;1.30;0.80;;;;;;;17.60;57.18;98962.91;5105599;28;20227;-70
2022/09/21 11:39:54;;;;;;;2.23;0.90;;;;;;;17.65;59.57;98960.69;5107709;28;20254;-70
2022/09/21 11:42:41;;;;;;;0.70;0.70;;;;;;;17.73;57.90;98952.03;5109406;28;20273;-70
2022/09/21 11:45:20;;;;;;;2.67;0.77;;;;;;;17.86;56.60;98950.81;5105515;28;20264;-70
2022/09/21 11:48:00;;;;;;;1.53;0.70;;;;;;;17.82;55.53;98937.84;5104611;28;20258;-71
2022/09/21 11:50:46;;;;;;;1.07;0.87;;;;;;;17.79;59.90;98951.50;5105923;28;20614;-71